Time;durP1;ratioP1;P1;durP2;ratioP2;P2;SDS_P1;SDS_P2;PMS_P1;PMS_P2;Temp;Humidity;BMP_temperature;BMP_pressure;BME280_temperature;BME280_humidity;BME280_pressure;Samples;Min_cycle;Max_cycle;Signal;HPM_P1;HPM_P2
2022/04/03 00:00:33;;;;;;;6.35;3.47;;;-0.20;99.90;;;;;;5012114;28;20084;-44
2022/04/03 00:03:00;;;;;;;7.72;3.38;;;-0.30;99.90;;;;;;5012573;28;20034;-49
2022/04/03 00:05:26;;;;;;;9.23;3.58;;;-0.30;99.90;;;;;;5012044;28;20038;-44
2022/04/03 00:07:54;;;;;;;9.75;3.47;;;-0.40;99.90;;;;;;5012278;28;20030;-43
2022/04/03 00:10:21;;;;;;;10.52;3.83;;;-0.30;99.90;;;;;;5012166;28;20077;-46
2022/04/03 00:12:47;;;;;;;8.38;3.75;;;-0.40;99.90;;;;;;5011985;28;20061;-47
2022/04/03 00:15:16;;;;;;;9.23;4.25;;;-0.40;99.90;;;;;;5012072;28;20124;-44
2022/04/03 00:17:43;;;;;;;7.35;3.80;;;-0.40;99.90;;;;;;5011709;28;20068;-47
2022/04/03 00:20:10;;;;;;;8.25;4.07;;;-0.40;99.90;;;;;;5012091;28;20091;-48
2022/04/03 00:22:36;;;;;;;6.75;3.95;;;-0.40;99.90;;;;;;5011682;28;20056;-46
2022/04/03 00:25:03;;;;;;;6.93;3.65;;;-0.50;99.90;;;;;;5011491;28;20042;-45
2022/04/03 00:27:29;;;;;;;7.65;4.07;;;-0.50;99.90;;;;;;5011819;28;20358;-45
2022/04/03 00:29:55;;;;;;;7.55;3.70;;;-0.40;99.90;;;;;;5011958;28;20088;-46
2022/04/03 00:32:21;;;;;;;6.38;3.75;;;-0.40;99.90;;;;;;5011559;28;20056;-49
2022/04/03 00:34:47;;;;;;;10.90;4.45;;;-0.40;99.90;;;;;;5011745;28;20112;-46
2022/04/03 00:37:13;;;;;;;12.30;3.90;;;-0.40;99.90;;;;;;4993841;28;20092;-46
2022/04/03 00:39:39;;;;;;;7.75;3.78;;;-0.50;99.90;;;;;;5011610;28;20057;-47
2022/04/03 00:42:07;;;;;;;8.18;3.83;;;-0.60;99.90;;;;;;5011248;28;20539;-46
2022/04/03 00:44:35;;;;;;;8.65;3.47;;;-0.50;99.90;;;;;;5011453;28;20042;-48
2022/04/03 00:47:01;;;;;;;6.22;3.83;;;-0.50;99.90;;;;;;5011701;28;20038;-48
2022/04/03 00:49:27;;;;;;;9.70;3.88;;;-0.50;99.90;;;;;;5011602;28;20080;-46
2022/04/03 00:51:53;;;;;;;8.15;3.83;;;-0.50;99.90;;;;;;5011274;28;20085;-49
2022/04/03 00:54:19;;;;;;;8.50;4.03;;;-0.40;99.90;;;;;;5011603;28;20038;-46
2022/04/03 00:56:45;;;;;;;7.45;3.50;;;-0.50;99.90;;;;;;5008917;28;20038;-49
2022/04/03 00:59:14;;;;;;;8.73;3.90;;;-0.40;99.90;;;;;;5011388;28;20053;-47
2022/04/03 01:01:44;;;;;;;7.28;3.40;;;-0.30;99.90;;;;;;5010833;28;20489;-47
2022/04/03 01:04:10;;;;;;;6.43;3.25;;;-0.30;99.90;;;;;;5011421;28;20405;-47
2022/04/03 01:06:36;;;;;;;6.38;3.28;;;-0.30;99.90;;;;;;5011382;28;20056;-47
2022/04/03 01:09:03;;;;;;;7.43;3.35;;;-0.20;99.90;;;;;;5011046;28;20370;-47
2022/04/03 01:11:30;;;;;;;8.55;3.50;;;-0.10;99.90;;;;;;5011183;28;20095;-47
2022/04/03 01:13:56;;;;;;;6.70;3.42;;;-0.20;99.90;;;;;;5011189;28;20041;-46
2022/04/03 01:16:21;;;;;;;8.98;3.53;;;-0.10;99.90;;;;;;5011273;28;20042;-47
2022/04/03 01:18:47;;;;;;;8.63;3.92;;;-0.10;99.90;;;;;;5011108;28;20045;-45
2022/04/03 01:21:14;;;;;;;8.63;3.38;;;-0.10;99.90;;;;;;5010566;28;20037;-44
2022/04/03 01:23:39;;;;;;;6.10;3.00;;;0.00;99.90;;;;;;5011115;28;20046;-44
2022/04/03 01:26:05;;;;;;;6.55;3.38;;;0.10;99.90;;;;;;5010787;28;20491;-45
2022/04/03 01:28:31;;;;;;;7.05;3.58;;;0.00;99.90;;;;;;5010874;28;20037;-45
2022/04/03 01:30:56;;;;;;;5.35;2.88;;;0.10;99.90;;;;;;5008793;28;20041;-46
2022/04/03 01:33:22;;;;;;;9.20;3.67;;;0.10;99.90;;;;;;5010844;28;20369;-50
2022/04/03 01:35:48;;;;;;;6.90;3.03;;;0.10;99.90;;;;;;5010639;28;20041;-43
2022/04/03 01:38:14;;;;;;;6.85;3.20;;;0.20;99.90;;;;;;5010573;28;20049;-44
2022/04/03 01:40:40;;;;;;;7.32;3.47;;;0.20;99.90;;;;;;5010655;28;20068;-48
2022/04/03 01:43:07;;;;;;;5.93;3.22;;;0.20;99.90;;;;;;5010307;28;20092;-50
2022/04/03 01:45:34;;;;;;;10.07;3.58;;;0.30;99.90;;;;;;5010320;28;20588;-46
2022/04/03 01:48:00;;;;;;;6.18;3.35;;;0.30;99.90;;;;;;4992588;28;20370;-47
2022/04/03 01:50:26;;;;;;;5.82;3.35;;;0.30;99.90;;;;;;5010491;28;20054;-49
2022/04/03 01:52:52;;;;;;;5.78;3.00;;;0.30;99.90;;;;;;5010051;28;20048;-50
2022/04/03 01:55:18;;;;;;;5.93;3.17;;;0.30;99.90;;;;;;5009810;28;20069;-46
2022/04/03 01:57:44;;;;;;;7.75;3.33;;;0.30;99.90;;;;;;4992690;28;20085;-45
2022/04/03 02:00:11;;;;;;;7.95;3.70;;;0.30;99.90;;;;;;5010282;28;20038;-48
2022/04/03 02:02:40;;;;;;;6.40;3.17;;;0.40;99.90;;;;;;5009902;28;20157;-48
2022/04/03 02:05:07;;;;;;;7.68;3.58;;;0.50;99.90;;;;;;5010149;28;20038;-47
2022/04/03 02:07:33;;;;;;;6.90;3.00;;;0.50;99.90;;;;;;5010634;28;20030;-46
2022/04/03 02:10:12;;;;;;;5.97;3.33;;;0.50;99.90;;;;;;5010352;28;20539;-48
2022/04/03 02:12:42;;;;;;;6.03;3.22;;;0.60;99.90;;;;;;5009859;28;20072;-47
2022/04/03 02:15:11;;;;;;;5.88;3.15;;;0.50;99.90;;;;;;5009932;28;20041;-46
2022/04/03 02:17:40;;;;;;;6.80;3.05;;;0.60;99.90;;;;;;5010598;28;20038;-47
2022/04/03 02:20:09;;;;;;;5.50;3.00;;;0.60;99.90;;;;;;4992317;28;20069;-47
2022/04/03 02:22:35;;;;;;;8.00;3.80;;;0.60;99.90;;;;;;5010075;28;20042;-46
2022/04/03 02:25:00;;;;;;;6.60;3.10;;;0.60;99.90;;;;;;5009233;28;20041;-48
2022/04/03 02:27:26;;;;;;;6.28;3.30;;;0.70;99.90;;;;;;5010018;28;20630;-47
2022/04/03 02:29:52;;;;;;;6.15;3.17;;;0.70;99.90;;;;;;5009831;28;20448;-49
2022/04/03 02:32:17;;;;;;;8.13;3.83;;;0.70;99.90;;;;;;5009062;28;20057;-51
2022/04/03 02:34:43;;;;;;;8.73;3.75;;;0.80;99.90;;;;;;5009693;28;20033;-46
2022/04/03 02:37:09;;;;;;;6.80;3.40;;;0.70;99.90;;;;;;5010378;28;20602;-48
2022/04/03 02:39:35;;;;;;;8.57;3.40;;;0.80;99.90;;;;;;5007973;28;20065;-48
2022/04/03 02:42:01;;;;;;;6.97;3.65;;;0.80;99.90;;;;;;5009621;28;20045;-49
2022/04/03 02:44:26;;;;;;;7.03;3.80;;;0.80;99.90;;;;;;5008552;28;20485;-47
2022/04/03 02:46:52;;;;;;;8.10;3.80;;;0.90;99.90;;;;;;5009581;28;20042;-50
2022/04/03 02:49:18;;;;;;;7.88;3.50;;;0.90;99.90;;;;;;5008431;28;20125;-49
2022/04/03 02:51:43;;;;;;;7.30;3.80;;;0.90;99.90;;;;;;5008063;28;20388;-48
2022/04/03 02:54:09;;;;;;;8.85;3.70;;;1.00;99.90;;;;;;5008420;28;20041;-45
2022/04/03 02:56:35;;;;;;;7.20;3.47;;;0.80;99.90;;;;;;5008884;28;20062;-48
2022/04/03 02:59:01;;;;;;;5.53;2.90;;;0.90;99.90;;;;;;5009707;28;20135;-45
2022/04/03 03:01:27;;;;;;;7.55;3.40;;;0.90;99.90;;;;;;4991846;28;20073;-48
2022/04/03 03:03:52;;;;;;;7.60;3.17;;;0.90;99.90;;;;;;5010027;28;20456;-46
2022/04/03 03:06:19;;;;;;;5.80;3.25;;;1.00;99.90;;;;;;5011909;28;20120;-48
2022/04/03 03:08:45;;;;;;;6.47;3.63;;;1.00;99.90;;;;;;5012578;28;20049;-45
2022/04/03 03:11:10;;;;;;;6.65;3.50;;;1.00;99.90;;;;;;5013275;28;20038;-48
2022/04/03 03:13:36;;;;;;;6.40;3.38;;;1.10;99.90;;;;;;5013727;28;20129;-47
2022/04/03 03:16:02;;;;;;;7.35;3.15;;;1.00;99.90;;;;;;5013121;28;20045;-46
2022/04/03 03:18:28;;;;;;;6.25;3.13;;;1.00;99.90;;;;;;5013409;28;20446;-47
2022/04/03 03:20:54;;;;;;;7.15;2.90;;;1.00;99.90;;;;;;5013611;28;20117;-48
2022/04/03 03:23:19;;;;;;;7.68;2.60;;;1.20;99.90;;;;;;5012070;28;20153;-47
2022/04/03 03:25:45;;;;;;;6.93;2.90;;;1.10;99.90;;;;;;5013473;28;20042;-46
2022/04/03 03:28:12;;;;;;;6.53;3.05;;;1.20;99.90;;;;;;5013340;28;20511;-46
2022/04/03 03:30:38;;;;;;;5.38;3.20;;;1.20;99.90;;;;;;5012236;28;20117;-45
2022/04/03 03:33:05;;;;;;;6.40;3.17;;;1.10;99.90;;;;;;5012982;28;20491;-48
2022/04/03 03:35:30;;;;;;;6.72;3.42;;;1.20;99.90;;;;;;5013238;28;20046;-48
2022/04/03 03:37:56;;;;;;;7.25;4.10;;;1.10;99.90;;;;;;5013124;28;20385;-46
2022/04/03 03:40:23;;;;;;;7.05;3.88;;;1.10;99.90;;;;;;5012544;28;20133;-47
2022/04/03 03:42:48;;;;;;;8.32;4.22;;;1.20;99.90;;;;;;5011992;28;20413;-46
2022/04/03 03:45:15;;;;;;;7.43;4.35;;;0.90;99.90;;;;;;5012164;28;20038;-44
2022/04/03 03:47:44;;;;;;;8.05;4.28;;;0.90;99.90;;;;;;5012890;28;20034;-47
2022/04/03 03:50:11;;;;;;;9.63;4.18;;;0.90;99.90;;;;;;4994983;28;20053;-48
2022/04/03 03:52:37;;;;;;;7.70;4.80;;;0.90;99.90;;;;;;5012844;28;20551;-47
2022/04/03 03:55:03;;;;;;;7.35;4.50;;;1.00;99.90;;;;;;5012455;28;20050;-46
2022/04/03 03:57:29;;;;;;;8.98;4.40;;;0.80;99.90;;;;;;5011074;28;20121;-48
2022/04/03 03:59:55;;;;;;;10.10;4.45;;;0.70;99.90;;;;;;5011954;28;20037;-48
2022/04/03 04:02:21;;;;;;;6.65;3.78;;;0.80;99.90;;;;;;4994473;28;20096;-48
2022/04/03 04:04:47;;;;;;;6.72;3.25;;;0.90;99.90;;;;;;5012450;28;20042;-46
2022/04/03 04:07:12;;;;;;;6.45;3.55;;;0.70;99.90;;;;;;5012298;28;20042;-47
2022/04/03 04:09:39;;;;;;;7.25;3.47;;;0.90;99.90;;;;;;5012432;28;20041;-47
2022/04/03 04:12:05;;;;;;;6.85;3.72;;;0.70;99.90;;;;;;5011971;28;20113;-48
2022/04/03 04:14:31;;;;;;;6.95;3.50;;;0.70;99.90;;;;;;5012422;28;20049;-48
2022/04/03 04:16:57;;;;;;;8.82;3.83;;;0.50;99.90;;;;;;5010896;28;20041;-48
2022/04/03 04:19:22;;;;;;;7.75;3.90;;;0.70;99.90;;;;;;5010331;28;20133;-46
2022/04/03 04:21:48;;;;;;;9.15;3.33;;;0.40;99.90;;;;;;5012279;28;20050;-46
2022/04/03 04:24:14;;;;;;;7.47;3.47;;;0.50;99.90;;;;;;5012148;28;20048;-45
2022/04/03 04:26:40;;;;;;;9.90;3.97;;;0.30;99.90;;;;;;5010414;28;20054;-46
2022/04/03 04:29:06;;;;;;;4.78;3.17;;;0.40;99.90;;;;;;5011710;28;20042;-46
2022/04/03 04:31:31;;;;;;;5.50;3.10;;;0.30;99.90;;;;;;5011509;28;20046;-44
2022/04/03 04:33:58;;;;;;;8.15;3.30;;;0.20;99.90;;;;;;5011986;28;20113;-46
2022/04/03 04:36:24;;;;;;;6.28;3.08;;;0.20;99.90;;;;;;5011714;28;20121;-47
2022/04/03 04:38:50;;;;;;;7.05;3.10;;;0.10;99.90;;;;;;5011805;28;20077;-45
2022/04/03 04:41:15;;;;;;;6.40;3.05;;;0.00;99.90;;;;;;5011226;28;20080;-49
2022/04/03 04:43:42;;;;;;;6.47;3.13;;;0.00;99.90;;;;;;5011631;28;20042;-47
2022/04/03 04:46:08;;;;;;;6.40;3.10;;;0.00;99.90;;;;;;5010982;28;20038;-48
2022/04/03 04:48:34;;;;;;;6.70;2.88;;;0.20;99.90;;;;;;5011206;28;20041;-50
2022/04/03 04:51:01;;;;;;;6.28;3.20;;;-0.10;99.90;;;;;;5010789;28;20036;-48
2022/04/03 04:53:27;;;;;;;5.90;3.05;;;0.00;99.90;;;;;;5011043;28;20049;-49
2022/04/03 04:55:53;;;;;;;5.28;3.05;;;0.00;99.90;;;;;;5010331;28;20042;-46
2022/04/03 04:58:18;;;;;;;6.25;3.70;;;-0.20;99.90;;;;;;5011696;28;20053;-45
2022/04/03 05:00:44;;;;;;;6.63;3.97;;;0.00;99.90;;;;;;5010900;28;20401;-46
2022/04/03 05:03:09;;;;;;;6.10;2.88;;;-0.20;99.90;;;;;;5011385;28;20384;-50
2022/04/03 05:05:36;;;;;;;6.90;3.40;;;-0.10;99.90;;;;;;5011312;28;20392;-48
2022/04/03 05:08:02;;;;;;;6.28;2.97;;;-0.20;99.90;;;;;;5010951;28;20045;-47
2022/04/03 05:10:30;;;;;;;6.05;2.78;;;-0.40;99.90;;;;;;5010983;28;20042;-49
2022/04/03 05:12:56;;;;;;;4.50;2.75;;;-0.30;99.90;;;;;;5011059;28;20144;-44
2022/04/03 05:15:22;;;;;;;6.25;3.00;;;-0.40;99.90;;;;;;5011139;28;20485;-46
2022/04/03 05:17:48;;;;;;;5.80;3.00;;;-0.30;99.90;;;;;;5010715;28;20041;-48
2022/04/03 05:20:15;;;;;;;6.13;2.65;;;-0.40;99.90;;;;;;5010769;28;20509;-48
2022/04/03 05:22:42;;;;;;;4.70;2.50;;;-0.40;99.90;;;;;;5010738;28;20045;-47
2022/04/03 05:25:11;;;;;;;7.28;2.92;;;-0.30;99.90;;;;;;5010779;28;20045;-45
2022/04/03 05:27:41;;;;;;;9.57;2.70;;;-0.30;99.90;;;;;;5010875;28;20061;-45
2022/04/03 05:30:08;;;;;;;6.82;2.45;;;-0.30;99.90;;;;;;5010638;28;20030;-50
2022/04/03 05:32:35;;;;;;;5.95;2.58;;;-0.40;99.90;;;;;;5010660;28;20477;-47
2022/04/03 05:35:01;;;;;;;5.05;2.38;;;-0.50;99.90;;;;;;4992828;28;20050;-46
2022/04/03 05:37:27;;;;;;;5.35;2.40;;;-0.50;99.90;;;;;;5010734;28;20044;-47
2022/04/03 05:39:53;;;;;;;4.10;2.22;;;-0.40;99.90;;;;;;5010618;28;20128;-49
2022/04/03 05:42:20;;;;;;;5.38;2.25;;;-0.50;99.90;;;;;;4992547;28;20136;-47
2022/04/03 05:44:46;;;;;;;7.00;2.40;;;-0.50;99.90;;;;;;5010327;28;20385;-48
2022/04/03 05:47:11;;;;;;;6.38;2.70;;;-0.40;99.90;;;;;;5010677;28;20034;-47
2022/04/03 05:49:37;;;;;;;5.55;2.80;;;-0.30;99.90;;;;;;5010429;28;20049;-46
2022/04/03 05:52:04;;;;;;;5.70;2.80;;;-0.40;99.90;;;;;;5010527;28;20046;-48
2022/04/03 05:54:30;;;;;;;5.60;2.67;;;-0.40;99.90;;;;;;5010555;28;20045;-49
2022/04/03 05:56:56;;;;;;;6.70;3.00;;;-0.30;99.90;;;;;;5010446;28;20033;-45
2022/04/03 05:59:22;;;;;;;6.35;2.97;;;-0.20;99.90;;;;;;5010068;28;20046;-49
2022/04/03 06:01:48;;;;;;;6.10;3.38;;;-0.20;99.90;;;;;;5009601;28;20530;-44
2022/04/03 06:04:14;;;;;;;8.57;3.50;;;-0.20;99.90;;;;;;5010406;28;20385;-46
2022/04/03 06:06:40;;;;;;;7.63;4.43;;;-0.20;99.90;;;;;;5010490;28;21297;-49
2022/04/03 06:09:06;;;;;;;6.05;3.50;;;-0.30;99.90;;;;;;5010429;28;20141;-48
2022/04/03 06:11:31;;;;;;;7.97;3.97;;;-0.20;99.90;;;;;;5009697;28;20095;-46
2022/04/03 06:13:57;;;;;;;8.32;3.60;;;-0.10;99.90;;;;;;5008519;28;20042;-49
2022/04/03 06:16:23;;;;;;;9.75;3.95;;;0.10;99.90;;;;;;5009902;28;20045;-45
2022/04/03 06:18:48;;;;;;;9.02;4.35;;;0.10;99.90;;;;;;5009972;28;20026;-48
2022/04/03 06:21:14;;;;;;;6.47;4.30;;;0.20;99.90;;;;;;5010458;28;20042;-45
2022/04/03 06:23:40;;;;;;;9.15;4.50;;;0.00;99.90;;;;;;5010399;28;20076;-46
2022/04/03 06:26:05;;;;;;;7.75;4.78;;;0.20;99.90;;;;;;5010130;28;20137;-47
2022/04/03 06:28:31;;;;;;;9.25;4.72;;;0.00;99.90;;;;;;5010324;28;20548;-49
2022/04/03 06:30:57;;;;;;;8.35;4.32;;;0.30;99.90;;;;;;5010004;28;20362;-46
2022/04/03 06:33:23;;;;;;;7.68;4.05;;;0.30;99.90;;;;;;5008833;28;20429;-45
2022/04/03 06:35:49;;;;;;;8.20;4.25;;;0.30;99.90;;;;;;5009843;28;20046;-46
2022/04/03 06:38:16;;;;;;;9.68;4.30;;;0.50;99.90;;;;;;5010350;28;20535;-45
2022/04/03 06:40:51;;;;;;;9.18;5.20;;;0.40;99.90;;;;;;5010837;28;20088;-46
2022/04/03 06:43:18;;;;;;;7.80;4.72;;;0.60;99.90;;;;;;5013596;28;20049;-50
2022/04/03 06:45:44;;;;;;;7.57;4.55;;;0.70;99.90;;;;;;5013213;28;20425;-47
2022/04/03 06:48:10;;;;;;;9.18;4.38;;;0.60;99.90;;;;;;5013309;28;20041;-47
2022/04/03 06:50:36;;;;;;;6.18;4.30;;;0.90;99.90;;;;;;5012412;28;20030;-49
2022/04/03 06:53:02;;;;;;;9.05;4.72;;;0.90;99.90;;;;;;5013085;28;20060;-50
2022/04/03 06:55:30;;;;;;;10.00;5.57;;;0.80;99.90;;;;;;5013399;28;20488;-44
2022/04/03 06:57:56;;;;;;;9.57;5.00;;;0.90;99.90;;;;;;5013510;28;20076;-45
2022/04/03 07:00:22;;;;;;;8.43;4.57;;;1.10;99.90;;;;;;5013537;28;20042;-49
2022/04/03 07:02:49;;;;;;;9.27;4.72;;;1.40;99.90;;;;;;5013251;28;20030;-48
2022/04/03 07:05:15;;;;;;;8.20;4.22;;;1.20;99.90;;;;;;5013660;28;20073;-44
2022/04/03 07:07:41;;;;;;;8.40;4.07;;;1.40;99.90;;;;;;5013612;28;20038;-48
2022/04/03 07:10:07;;;;;;;8.95;4.18;;;1.40;99.90;;;;;;5013482;28;20042;-50
2022/04/03 07:12:33;;;;;;;6.00;3.97;;;1.40;99.90;;;;;;5013515;28;20513;-48
2022/04/03 07:14:59;;;;;;;9.13;4.10;;;1.50;99.90;;;;;;5013583;28;20129;-50
2022/04/03 07:17:24;;;;;;;6.78;3.63;;;1.80;99.90;;;;;;5013523;28;20480;-46
2022/04/03 07:19:50;;;;;;;8.00;3.25;;;1.90;99.90;;;;;;5013075;28;20041;-45
2022/04/03 07:22:16;;;;;;;7.93;2.72;;;2.30;99.90;;;;;;5013110;28;20441;-45
2022/04/03 07:24:41;;;;;;;6.47;2.22;;;2.60;99.90;;;;;;5013323;28;20401;-48
2022/04/03 07:27:07;;;;;;;4.25;1.30;;;2.80;99.90;;;;;;4995400;28;20448;-48
2022/04/03 07:29:33;;;;;;;5.80;1.50;;;3.00;99.90;;;;;;5012864;28;20385;-48
2022/04/03 07:31:59;;;;;;;5.97;1.50;;;3.20;99.90;;;;;;5012523;28;20041;-47
2022/04/03 07:34:25;;;;;;;6.15;1.55;;;3.20;99.90;;;;;;5012984;28;20054;-47
2022/04/03 07:36:51;;;;;;;6.78;1.63;;;3.40;99.90;;;;;;4994046;28;20045;-44
2022/04/03 07:39:17;;;;;;;4.43;1.60;;;3.50;99.90;;;;;;5012606;28;20080;-44
2022/04/03 07:41:42;;;;;;;5.93;1.40;;;3.50;99.90;;;;;;5009303;28;20245;-47
2022/04/03 07:44:10;;;;;;;5.15;1.58;;;3.60;99.90;;;;;;5009445;28;20049;-47
2022/04/03 07:46:37;;;;;;;4.47;1.90;;;3.60;99.90;;;;;;5006279;28;20084;-48
2022/04/03 07:49:04;;;;;;;4.63;1.60;;;3.70;99.90;;;;;;5010560;28;20034;-46
2022/04/03 07:51:30;;;;;;;6.38;1.90;;;3.60;99.90;;;;;;5002794;28;20127;-47
2022/04/03 07:53:56;;;;;;;5.07;1.38;;;3.70;99.90;;;;;;5002900;28;20037;-51
2022/04/03 07:56:22;;;;;;;4.57;1.45;;;3.70;99.90;;;;;;5004893;28;20036;-48
2022/04/03 07:58:48;;;;;;;5.00;1.75;;;3.90;99.90;;;;;;5003796;28;20042;-46
2022/04/03 08:01:13;;;;;;;7.15;1.70;;;3.90;99.90;;;;;;5001312;28;20034;-47
2022/04/03 08:03:39;;;;;;;5.97;1.40;;;4.10;99.90;;;;;;4977273;28;20049;-49
2022/04/03 08:06:06;;;;;;;5.22;1.50;;;4.20;99.90;;;;;;5001529;28;20718;-48
2022/04/03 08:08:31;;;;;;;6.20;1.35;;;4.40;99.90;;;;;;5000408;28;20290;-52
2022/04/03 08:10:57;;;;;;;6.03;1.50;;;4.50;99.90;;;;;;5003271;28;20607;-45
2022/04/03 08:13:23;;;;;;;6.47;1.63;;;4.60;99.90;;;;;;5004829;28;20053;-50
2022/04/03 08:15:49;;;;;;;3.40;1.27;;;4.70;99.90;;;;;;5004223;28;20029;-51
2022/04/03 08:18:16;;;;;;;6.28;1.27;;;4.90;99.90;;;;;;4993976;28;20047;-49
2022/04/03 08:20:43;;;;;;;5.57;1.08;;;5.00;99.90;;;;;;4994532;28;20100;-47
2022/04/03 08:23:09;;;;;;;4.40;1.08;;;5.20;99.90;;;;;;5000667;28;20176;-46
2022/04/03 08:25:35;;;;;;;5.43;1.17;;;5.40;99.90;;;;;;5002047;28;20121;-49
2022/04/03 08:28:02;;;;;;;4.40;1.30;;;5.30;99.90;;;;;;4999717;28;20046;-46
2022/04/03 08:30:33;;;;;;;4.50;1.30;;;5.30;99.90;;;;;;5001266;28;20172;-49
2022/04/03 08:33:01;;;;;;;5.68;1.20;;;5.20;99.90;;;;;;5002789;28;20277;-47
2022/04/03 08:35:28;;;;;;;5.35;1.10;;;5.20;99.90;;;;;;4994897;28;20033;-44
2022/04/03 08:37:55;;;;;;;4.70;0.93;;;5.10;99.90;;;;;;4999855;28;20038;-49
2022/04/03 08:40:24;;;;;;;3.70;0.90;;;5.00;99.90;;;;;;5001127;28;20505;-47
2022/04/03 08:42:51;;;;;;;3.25;1.08;;;4.90;99.90;;;;;;4995384;28;20042;-47
2022/04/03 08:45:17;;;;;;;4.22;1.00;;;4.70;99.90;;;;;;5002799;28;20041;-46
2022/04/03 08:48:03;;;;;;;4.35;1.13;;;4.80;99.90;;;;;;5003044;28;20084;-50
2022/04/03 08:50:31;;;;;;;4.80;1.00;;;5.00;99.90;;;;;;4993344;28;20113;-51
2022/04/03 08:52:59;;;;;;;4.35;0.88;;;5.20;99.90;;;;;;4999454;28;20633;-45
2022/04/03 08:55:25;;;;;;;2.45;0.75;;;5.30;99.90;;;;;;4999066;28;20645;-49
2022/04/03 08:57:52;;;;;;;2.67;0.85;;;5.30;99.90;;;;;;5000769;28;20473;-45
2022/04/03 09:00:18;;;;;;;2.47;0.90;;;5.50;99.90;;;;;;5000886;28;20042;-48
2022/04/03 09:02:47;;;;;;;3.33;0.80;;;5.70;99.90;;;;;;5000749;28;20393;-48
2022/04/03 09:05:17;;;;;;;5.18;0.85;;;5.80;99.90;;;;;;5003170;28;20053;-47
2022/04/03 09:07:43;;;;;;;3.08;1.10;;;6.10;99.90;;;;;;5001582;28;20057;-46
2022/04/03 09:10:13;;;;;;;4.95;1.08;;;6.40;99.90;;;;;;5003109;28;20026;-46
2022/04/03 09:12:50;;;;;;;2.90;0.77;;;6.60;99.90;;;;;;5003590;28;20064;-47
2022/04/03 09:15:19;;;;;;;2.20;0.85;;;6.40;99.90;;;;;;5002672;28;20045;-50
2022/04/03 09:17:52;;;;;;;4.95;0.90;;;6.10;99.90;;;;;;5002440;28;20129;-46
2022/04/03 09:20:22;;;;;;;2.67;1.00;;;6.00;99.90;;;;;;5002422;28;20117;-47
2022/04/03 09:22:53;;;;;;;2.83;1.10;;;6.00;99.90;;;;;;5003106;28;20375;-49
2022/04/03 09:25:31;;;;;;;2.25;0.88;;;6.10;99.90;;;;;;4995475;28;20039;-49
2022/04/03 09:28:05;;;;;;;5.00;0.80;;;6.50;99.90;;;;;;4995369;28;20030;-50
2022/04/03 09:30:33;;;;;;;2.17;0.80;;;6.30;99.90;;;;;;5001530;28;20039;-49
2022/04/03 09:33:00;;;;;;;4.20;0.80;;;6.20;99.90;;;;;;5000057;28;20037;-47
2022/04/03 09:35:32;;;;;;;4.25;0.88;;;6.10;99.90;;;;;;5001017;28;20485;-49
2022/04/03 09:38:15;;;;;;;2.85;0.70;;;6.50;99.90;;;;;;5000666;28;20038;-49
2022/04/03 09:40:47;;;;;;;2.45;0.82;;;6.90;99.90;;;;;;4976412;28;20067;-46
2022/04/03 09:43:14;;;;;;;1.65;0.70;;;7.00;99.90;;;;;;4993686;28;20075;-49
2022/04/03 09:45:47;;;;;;;3.17;0.60;;;6.90;99.90;;;;;;4997887;28;20048;-47
2022/04/03 09:48:31;;;;;;;4.60;0.80;;;7.10;99.90;;;;;;4999291;28;20484;-48
2022/04/03 09:50:59;;;;;;;1.77;0.63;;;7.40;99.90;;;;;;5000049;28;20385;-47
2022/04/03 09:53:28;;;;;;;2.15;0.80;;;7.60;99.90;;;;;;5000289;28;20374;-47
2022/04/03 09:55:54;;;;;;;2.40;0.90;;;7.70;99.90;;;;;;4999118;28;20038;-50
2022/04/03 09:58:20;;;;;;;1.35;0.73;;;7.60;99.90;;;;;;5000378;28;20037;-46
2022/04/03 10:00:45;;;;;;;3.17;0.93;;;7.60;99.90;;;;;;5001139;28;21277;-47
2022/04/03 10:03:13;;;;;;;1.45;0.60;;;7.50;99.90;;;;;;4996198;28;20159;-47
2022/04/03 10:05:39;;;;;;;5.78;0.82;;;7.20;99.90;;;;;;4988742;28;20049;-46
2022/04/03 10:08:06;;;;;;;2.83;0.80;;;7.40;99.90;;;;;;4989426;28;20027;-48
2022/04/03 10:10:34;;;;;;;2.17;0.73;;;7.60;99.90;;;;;;4990307;28;20065;-46
2022/04/03 10:13:01;;;;;;;2.05;0.93;;;7.70;99.90;;;;;;4997114;28;20033;-49
2022/04/03 10:15:28;;;;;;;4.28;0.90;;;8.10;99.90;;;;;;4999393;28;20122;-50
2022/04/03 10:17:54;;;;;;;3.42;1.10;;;8.00;99.90;;;;;;5002562;28;20177;-50
2022/04/03 10:20:25;;;;;;;1.95;0.80;;;7.70;99.90;;;;;;5001425;28;20038;-49
2022/04/03 10:22:55;;;;;;;2.72;0.90;;;7.40;99.90;;;;;;5002631;28;20045;-44
2022/04/03 10:25:36;;;;;;;4.15;1.00;;;7.20;99.90;;;;;;5004118;28;20045;-47
2022/04/03 10:28:05;;;;;;;3.80;0.80;;;7.00;99.90;;;;;;5001739;28;20049;-46
2022/04/03 10:30:39;;;;;;;3.60;0.93;;;7.20;99.90;;;;;;5003759;28;20069;-49
2022/04/03 10:33:05;;;;;;;2.33;0.77;;;7.50;99.90;;;;;;5006678;28;20058;-47
2022/04/03 10:35:31;;;;;;;3.85;0.90;;;7.60;99.90;;;;;;5012252;28;20343;-50
2022/04/03 10:38:06;;;;;;;3.60;0.90;;;7.80;99.90;;;;;;5011372;28;20030;-47
2022/04/03 10:40:34;;;;;;;1.83;0.77;;;8.10;99.90;;;;;;5010443;28;20157;-51
2022/04/03 10:43:03;;;;;;;3.28;1.00;;;8.60;99.90;;;;;;5011088;28;20046;-49
2022/04/03 10:45:28;;;;;;;2.65;0.90;;;8.40;99.90;;;;;;5012537;28;20124;-52
2022/04/03 10:48:19;;;;;;;2.10;0.73;;;7.80;99.90;;;;;;5012599;28;20037;-48
2022/04/03 10:50:59;;;;;;;2.47;0.80;;;8.00;99.90;;;;;;5012205;28;20045;-49
2022/04/03 10:53:31;;;;;;;2.92;1.00;;;7.60;99.90;;;;;;5011548;28;20041;-49
2022/04/03 10:55:58;;;;;;;2.10;0.70;;;7.50;99.90;;;;;;5012043;28;20034;-48
2022/04/03 10:58:36;;;;;;;1.83;0.70;;;7.40;99.90;;;;;;4993878;28;20046;-51
2022/04/03 11:01:03;;;;;;;2.80;0.80;;;7.60;99.90;;;;;;5011060;28;20041;-50
2022/04/03 11:03:31;;;;;;;3.63;1.02;;;8.20;99.90;;;;;;5012241;28;20038;-48
2022/04/03 11:05:57;;;;;;;3.05;1.02;;;8.30;99.90;;;;;;5011217;28;20042;-49
2022/04/03 11:08:43;;;;;;;1.65;0.73;;;8.30;99.90;;;;;;5011107;28;20041;-50
2022/04/03 11:11:09;;;;;;;3.40;0.90;;;8.60;99.90;;;;;;4993798;28;20112;-48
2022/04/03 11:13:35;;;;;;;2.25;0.80;;;8.80;99.90;;;;;;5010969;28;20042;-48
2022/04/03 11:16:05;;;;;;;2.15;0.90;;;9.00;99.90;;;;;;5011487;28;20523;-50
2022/04/03 11:18:33;;;;;;;1.98;0.90;;;8.60;99.90;;;;;;5011633;28;21278;-52
2022/04/03 11:21:33;;;;;;;2.40;1.00;;;8.70;99.90;;;;;;5011970;28;20034;-50
2022/04/03 11:24:11;;;;;;;2.10;0.90;;;8.50;99.90;;;;;;5011141;28;20042;-46
2022/04/03 11:26:38;;;;;;;1.67;0.80;;;8.40;99.90;;;;;;5006698;28;20033;-47
2022/04/03 11:29:05;;;;;;;2.58;0.95;;;8.10;99.90;;;;;;4992939;28;20103;-50
2022/04/03 11:31:32;;;;;;;3.45;0.98;;;8.00;99.90;;;;;;5007208;28;20041;-51
2022/04/03 11:33:58;;;;;;;4.43;1.20;;;7.60;99.90;;;;;;5009890;28;20120;-46
2022/04/03 11:36:26;;;;;;;4.55;1.35;;;7.60;99.90;;;;;;5010473;28;20083;-49
2022/04/03 11:38:53;;;;;;;3.75;1.10;;;8.40;99.90;;;;;;5008773;28;20038;-51
2022/04/03 11:41:27;;;;;;;3.40;1.00;;;8.70;99.90;;;;;;5010122;28;20052;-47
2022/04/03 11:44:00;;;;;;;3.45;1.02;;;9.00;99.90;;;;;;5010182;28;20034;-45
2022/04/03 11:46:30;;;;;;;1.88;0.70;;;8.70;99.90;;;;;;4990547;28;20085;-48
2022/04/03 11:48:56;;;;;;;4.68;0.80;;;8.30;99.90;;;;;;4995207;28;20038;-49
2022/04/03 11:51:22;;;;;;;2.67;0.90;;;8.30;99.90;;;;;;5010203;28;20603;-49
2022/04/03 11:54:00;;;;;;;3.28;0.95;;;8.10;99.90;;;;;;5010205;28;20049;-51
2022/04/03 11:56:31;;;;;;;3.40;0.82;;;7.80;99.90;;;;;;5010053;28;20057;-51
2022/04/03 11:58:58;;;;;;;2.67;0.90;;;7.60;99.90;;;;;;5003793;28;20659;-48
2022/04/03 12:01:29;;;;;;;2.58;0.93;;;7.60;99.90;;;;;;5006605;28;20054;-48
2022/04/03 12:04:08;;;;;;;3.28;0.95;;;7.50;99.90;;;;;;5010525;28;20042;-47
2022/04/03 12:06:38;;;;;;;3.85;1.00;;;7.50;99.90;;;;;;5010015;28;20042;-51
2022/04/03 12:09:08;;;;;;;2.22;1.08;;;7.40;99.90;;;;;;5010621;28;20370;-48
2022/04/03 12:11:35;;;;;;;2.03;1.00;;;7.60;99.90;;;;;;5011088;28;20038;-46
2022/04/03 12:14:02;;;;;;;2.90;0.90;;;7.50;99.90;;;;;;5009445;28;20112;-47
2022/04/03 12:16:31;;;;;;;3.45;1.00;;;7.40;99.90;;;;;;4988145;28;20113;-49
2022/04/03 12:19:08;;;;;;;1.85;0.80;;;7.50;99.90;;;;;;4991445;28;20096;-51
2022/04/03 12:21:54;;;;;;;2.33;0.80;;;7.60;99.90;;;;;;5008389;28;20034;-46
2022/04/03 12:24:28;;;;;;;1.83;0.80;;;7.50;99.90;;;;;;4992170;28;20050;-50
2022/04/03 12:26:59;;;;;;;3.53;0.93;;;7.70;99.90;;;;;;5008895;28;20030;-51
2022/04/03 12:29:27;;;;;;;3.92;1.58;;;7.80;99.90;;;;;;5009096;28;20400;-50
2022/04/03 12:32:05;;;;;;;3.63;1.10;;;7.70;99.90;;;;;;5008317;28;20108;-51
2022/04/03 12:34:42;;;;;;;2.75;0.90;;;7.90;99.90;;;;;;5008315;28;20049;-50
2022/04/03 12:37:10;;;;;;;3.85;1.23;;;8.00;99.90;;;;;;5008934;28;20041;-48
2022/04/03 12:39:39;;;;;;;2.97;0.80;;;8.30;99.90;;;;;;5009512;28;20049;-49
2022/04/03 12:42:08;;;;;;;3.90;0.70;;;8.50;99.90;;;;;;5008307;28;20197;-51
2022/04/03 12:44:49;;;;;;;1.52;0.70;;;8.80;99.90;;;;;;5010055;28;20115;-48
2022/04/03 12:47:21;;;;;;;2.97;0.80;;;8.80;99.90;;;;;;5009415;28;20038;-50
2022/04/03 12:50:16;;;;;;;2.75;0.82;;;9.00;99.90;;;;;;5009397;28;20030;-47
2022/04/03 12:52:53;;;;;;;2.80;0.95;;;9.20;99.90;;;;;;5009436;28;20121;-48
2022/04/03 12:55:24;;;;;;;2.58;0.80;;;9.00;99.90;;;;;;5009708;28;21122;-51
2022/04/03 13:01:14;;;;;;;2.97;0.90;;;9.40;99.90;;;;;;5009511;28;20520;-51